sensor_id;sensor_type;location;lat;lon;timestamp;P1;P2;P0
55459;PMS5003;41326;45.302;-122.946;2024-01-16T00:00:57;0;0;
55459;PMS5003;41326;45.302;-122.946;2024-01-16T00:03:27;0;0;
55459;PMS5003;41326;45.302;-122.946;2024-01-16T00:05:57;0;0;
55459;PMS5003;41326;45.302;-122.946;2024-01-16T00:08:27;0;0;
55459;PMS5003;41326;45.302;-122.946;2024-01-16T00:10:58;0;0;
55459;PMS5003;41326;45.302;-122.946;2024-01-16T00:13:28;0;0;
55459;PMS5003;41326;45.302;-122.946;2024-01-16T00:15:58;0;0;
55459;PMS5003;41326;45.302;-122.946;2024-01-16T00:18:28;0;0;
55459;PMS5003;41326;45.302;-122.946;2024-01-16T00:21:00;0;0;
55459;PMS5003;41326;45.302;-122.946;2024-01-16T00:23:28;0;0;
55459;PMS5003;41326;45.302;-122.946;2024-01-16T00:25:58;0;0;
55459;PMS5003;41326;45.302;-122.946;2024-01-16T00:28:28;1;0;
55459;PMS5003;41326;45.302;-122.946;2024-01-16T00:30:58;0;0;
55459;PMS5003;41326;45.302;-122.946;2024-01-16T00:33:29;0;0;
55459;PMS5003;41326;45.302;-122.946;2024-01-16T00:35:59;0;0;
55459;PMS5003;41326;45.302;-122.946;2024-01-16T00:38:29;0;0;
55459;PMS5003;41326;45.302;-122.946;2024-01-16T00:40:59;0;0;
55459;PMS5003;41326;45.302;-122.946;2024-01-16T00:43:29;0;0;
55459;PMS5003;41326;45.302;-122.946;2024-01-16T00:45:59;0;0;
55459;PMS5003;41326;45.302;-122.946;2024-01-16T00:48:29;0;0;
55459;PMS5003;41326;45.302;-122.946;2024-01-16T00:51:00;0;0;
55459;PMS5003;41326;45.302;-122.946;2024-01-16T00:53:29;0;0;
55459;PMS5003;41326;45.302;-122.946;2024-01-16T00:55:59;0;0;
55459;PMS5003;41326;45.302;-122.946;2024-01-16T00:58:29;0;0;
55459;PMS5003;41326;45.302;-122.946;2024-01-16T01:01:00;0;0;
55459;PMS5003;41326;45.302;-122.946;2024-01-16T01:03:30;0;0;
55459;PMS5003;41326;45.302;-122.946;2024-01-16T01:06:00;0;0;
55459;PMS5003;41326;45.302;-122.946;2024-01-16T01:08:30;0;0;
55459;PMS5003;41326;45.302;-122.946;2024-01-16T01:11:01;0;0;
55459;PMS5003;41326;45.302;-122.946;2024-01-16T01:13:31;0;0;
55459;PMS5003;41326;45.302;-122.946;2024-01-16T01:16:01;0;0;
55459;PMS5003;41326;45.302;-122.946;2024-01-16T01:18:31;1;0;
55459;PMS5003;41326;45.302;-122.946;2024-01-16T01:21:01;0;0;
55459;PMS5003;41326;45.302;-122.946;2024-01-16T01:23:31;0;0;
55459;PMS5003;41326;45.302;-122.946;2024-01-16T01:26:01;1;0;
55459;PMS5003;41326;45.302;-122.946;2024-01-16T01:28:31;0;0;
55459;PMS5003;41326;45.302;-122.946;2024-01-16T01:31:02;0;0;
55459;PMS5003;41326;45.302;-122.946;2024-01-16T01:33:32;0;0;
55459;PMS5003;41326;45.302;-122.946;2024-01-16T01:36:02;0;0;
55459;PMS5003;41326;45.302;-122.946;2024-01-16T01:38:32;0;0;
55459;PMS5003;41326;45.302;-122.946;2024-01-16T01:41:02;0;0;
55459;PMS5003;41326;45.302;-122.946;2024-01-16T01:43:32;0;0;
55459;PMS5003;41326;45.302;-122.946;2024-01-16T01:46:08;0;0;
55459;PMS5003;41326;45.302;-122.946;2024-01-16T01:48:32;0;0;
55459;PMS5003;41326;45.302;-122.946;2024-01-16T01:51:03;0;0;
55459;PMS5003;41326;45.302;-122.946;2024-01-16T01:53:33;0;0;
55459;PMS5003;41326;45.302;-122.946;2024-01-16T01:56:03;0;0;
55459;PMS5003;41326;45.302;-122.946;2024-01-16T01:58:33;2;0;
55459;PMS5003;41326;45.302;-122.946;2024-01-16T02:01:04;17;10;
55459;PMS5003;41326;45.302;-122.946;2024-01-16T02:03:35;14;10;
55459;PMS5003;41326;45.302;-122.946;2024-01-16T02:06:04;8;8;
55459;PMS5003;41326;45.302;-122.946;2024-01-16T02:08:34;10;5;
55459;PMS5003;41326;45.302;-122.946;2024-01-16T02:11:04;6;5;
55459;PMS5003;41326;45.302;-122.946;2024-01-16T02:13:35;3;2;
55459;PMS5003;41326;45.302;-122.946;2024-01-16T02:16:05;3;3;
55459;PMS5003;41326;45.302;-122.946;2024-01-16T02:18:35;4;3;
55459;PMS5003;41326;45.302;-122.946;2024-01-16T02:21:05;2;2;
55459;PMS5003;41326;45.302;-122.946;2024-01-16T02:23:36;2;2;
55459;PMS5003;41326;45.302;-122.946;2024-01-16T02:26:06;3;1;
55459;PMS5003;41326;45.302;-122.946;2024-01-16T02:28:36;3;3;
55459;PMS5003;41326;45.302;-122.946;2024-01-16T02:31:07;2;2;
55459;PMS5003;41326;45.302;-122.946;2024-01-16T02:33:37;3;2;
55459;PMS5003;41326;45.302;-122.946;2024-01-16T02:36:07;0;0;
55459;PMS5003;41326;45.302;-122.946;2024-01-16T02:38:37;2;1;
55459;PMS5003;41326;45.302;-122.946;2024-01-16T02:41:07;1;1;
55459;PMS5003;41326;45.302;-122.946;2024-01-16T02:43:38;1;1;
55459;PMS5003;41326;45.302;-122.946;2024-01-16T02:46:08;2;1;
55459;PMS5003;41326;45.302;-122.946;2024-01-16T02:48:38;0;0;
55459;PMS5003;41326;45.302;-122.946;2024-01-16T02:51:09;0;0;
55459;PMS5003;41326;45.302;-122.946;2024-01-16T02:53:38;1;1;
55459;PMS5003;41326;45.302;-122.946;2024-01-16T02:56:08;2;1;
55459;PMS5003;41326;45.302;-122.946;2024-01-16T02:58:38;1;1;
55459;PMS5003;41326;45.302;-122.946;2024-01-16T03:01:08;1;1;
55459;PMS5003;41326;45.302;-122.946;2024-01-16T03:03:38;1;0;
55459;PMS5003;41326;45.302;-122.946;2024-01-16T03:06:09;0;0;
55459;PMS5003;41326;45.302;-122.946;2024-01-16T03:08:39;0;0;
55459;PMS5003;41326;45.302;-122.946;2024-01-16T03:11:09;1;1;
55459;PMS5003;41326;45.302;-122.946;2024-01-16T03:13:39;0;0;
55459;PMS5003;41326;45.302;-122.946;2024-01-16T03:16:09;0;0;
55459;PMS5003;41326;45.302;-122.946;2024-01-16T03:18:39;0;0;
55459;PMS5003;41326;45.302;-122.946;2024-01-16T03:21:10;0;0;
55459;PMS5003;41326;45.302;-122.946;2024-01-16T03:23:39;1;1;
55459;PMS5003;41326;45.302;-122.946;2024-01-16T03:26:12;1;1;
55459;PMS5003;41326;45.302;-122.946;2024-01-16T03:28:40;1;0;
55459;PMS5003;41326;45.302;-122.946;2024-01-16T03:31:10;0;0;
55459;PMS5003;41326;45.302;-122.946;2024-01-16T03:33:40;0;0;
55459;PMS5003;41326;45.302;-122.946;2024-01-16T03:36:10;0;0;
55459;PMS5003;41326;45.302;-122.946;2024-01-16T03:38:41;1;0;
55459;PMS5003;41326;45.302;-122.946;2024-01-16T03:41:10;0;0;
55459;PMS5003;41326;45.302;-122.946;2024-01-16T03:43:40;0;0;
55459;PMS5003;41326;45.302;-122.946;2024-01-16T03:46:11;0;0;
55459;PMS5003;41326;45.302;-122.946;2024-01-16T03:48:41;0;0;
55459;PMS5003;41326;45.302;-122.946;2024-01-16T03:51:12;0;0;
55459;PMS5003;41326;45.302;-122.946;2024-01-16T03:53:41;0;0;
55459;PMS5003;41326;45.302;-122.946;2024-01-16T03:56:11;2;1;
55459;PMS5003;41326;45.302;-122.946;2024-01-16T03:58:41;0;0;
55459;PMS5003;41326;45.302;-122.946;2024-01-16T04:01:11;2;0;
55459;PMS5003;41326;45.302;-122.946;2024-01-16T04:03:42;0;0;
55459;PMS5003;41326;45.302;-122.946;2024-01-16T04:06:15;0;0;
55459;PMS5003;41326;45.302;-122.946;2024-01-16T04:08:42;0;0;
55459;PMS5003;41326;45.302;-122.946;2024-01-16T04:11:12;0;0;
55459;PMS5003;41326;45.302;-122.946;2024-01-16T04:13:42;0;0;
55459;PMS5003;41326;45.302;-122.946;2024-01-16T04:16:12;0;0;
55459;PMS5003;41326;45.302;-122.946;2024-01-16T04:18:43;0;0;
55459;PMS5003;41326;45.302;-122.946;2024-01-16T04:21:12;0;0;
55459;PMS5003;41326;45.302;-122.946;2024-01-16T04:23:42;0;0;
55459;PMS5003;41326;45.302;-122.946;2024-01-16T04:26:12;0;0;
55459;PMS5003;41326;45.302;-122.946;2024-01-16T04:28:43;0;0;
55459;PMS5003;41326;45.302;-122.946;2024-01-16T04:31:13;0;0;
55459;PMS5003;41326;45.302;-122.946;2024-01-16T04:33:43;0;0;
55459;PMS5003;41326;45.302;-122.946;2024-01-16T04:36:13;0;0;
55459;PMS5003;41326;45.302;-122.946;2024-01-16T04:38:43;0;0;
55459;PMS5003;41326;45.302;-122.946;2024-01-16T04:41:13;0;0;
55459;PMS5003;41326;45.302;-122.946;2024-01-16T04:43:43;0;0;
55459;PMS5003;41326;45.302;-122.946;2024-01-16T04:46:14;0;0;
55459;PMS5003;41326;45.302;-122.946;2024-01-16T04:48:43;0;0;
55459;PMS5003;41326;45.302;-122.946;2024-01-16T04:51:14;0;0;
55459;PMS5003;41326;45.302;-122.946;2024-01-16T04:53:44;0;0;
55459;PMS5003;41326;45.302;-122.946;2024-01-16T04:56:14;0;0;
55459;PMS5003;41326;45.302;-122.946;2024-01-16T04:58:44;0;0;
55459;PMS5003;41326;45.302;-122.946;2024-01-16T05:01:14;0;0;
55459;PMS5003;41326;45.302;-122.946;2024-01-16T05:03:44;0;0;
55459;PMS5003;41326;45.302;-122.946;2024-01-16T05:06:14;0;0;
55459;PMS5003;41326;45.302;-122.946;2024-01-16T05:08:44;0;0;
55459;PMS5003;41326;45.302;-122.946;2024-01-16T05:11:15;0;0;
55459;PMS5003;41326;45.302;-122.946;2024-01-16T05:13:45;0;0;
55459;PMS5003;41326;45.302;-122.946;2024-01-16T05:16:15;0;0;
55459;PMS5003;41326;45.302;-122.946;2024-01-16T05:18:45;0;0;
55459;PMS5003;41326;45.302;-122.946;2024-01-16T05:21:15;0;0;
55459;PMS5003;41326;45.302;-122.946;2024-01-16T05:23:45;0;0;
55459;PMS5003;41326;45.302;-122.946;2024-01-16T05:26:15;0;0;
55459;PMS5003;41326;45.302;-122.946;2024-01-16T05:28:45;0;0;
55459;PMS5003;41326;45.302;-122.946;2024-01-16T05:31:15;0;0;
55459;PMS5003;41326;45.302;-122.946;2024-01-16T05:33:46;0;0;
55459;PMS5003;41326;45.302;-122.946;2024-01-16T05:36:16;0;0;
55459;PMS5003;41326;45.302;-122.946;2024-01-16T05:38:46;0;0;
55459;PMS5003;41326;45.302;-122.946;2024-01-16T05:41:16;0;0;
55459;PMS5003;41326;45.302;-122.946;2024-01-16T05:43:46;0;0;
55459;PMS5003;41326;45.302;-122.946;2024-01-16T05:46:17;0;0;
55459;PMS5003;41326;45.302;-122.946;2024-01-16T05:48:46;0;0;
55459;PMS5003;41326;45.302;-122.946;2024-01-16T05:51:23;0;0;
55459;PMS5003;41326;45.302;-122.946;2024-01-16T05:53:53;0;0;
55459;PMS5003;41326;45.302;-122.946;2024-01-16T05:56:23;0;0;
55459;PMS5003;41326;45.302;-122.946;2024-01-16T05:58:54;0;0;
55459;PMS5003;41326;45.302;-122.946;2024-01-16T06:01:24;0;0;
55459;PMS5003;41326;45.302;-122.946;2024-01-16T06:03:54;0;0;
55459;PMS5003;41326;45.302;-122.946;2024-01-16T06:06:24;0;0;
55459;PMS5003;41326;45.302;-122.946;2024-01-16T06:08:54;0;0;
55459;PMS5003;41326;45.302;-122.946;2024-01-16T06:13:55;0;0;
55459;PMS5003;41326;45.302;-122.946;2024-01-16T06:16:25;0;0;
55459;PMS5003;41326;45.302;-122.946;2024-01-16T06:18:55;0;0;
55459;PMS5003;41326;45.302;-122.946;2024-01-16T06:21:25;0;0;
55459;PMS5003;41326;45.302;-122.946;2024-01-16T06:23:56;0;0;
55459;PMS5003;41326;45.302;-122.946;2024-01-16T06:26:26;0;0;
55459;PMS5003;41326;45.302;-122.946;2024-01-16T06:28:57;0;0;
55459;PMS5003;41326;45.302;-122.946;2024-01-16T06:31:27;0;0;
55459;PMS5003;41326;45.302;-122.946;2024-01-16T06:33:58;0;0;
55459;PMS5003;41326;45.302;-122.946;2024-01-16T06:36:28;0;0;
55459;PMS5003;41326;45.302;-122.946;2024-01-16T06:38:58;0;0;
55459;PMS5003;41326;45.302;-122.946;2024-01-16T06:41:28;0;0;
55459;PMS5003;41326;45.302;-122.946;2024-01-16T06:43:59;0;0;
55459;PMS5003;41326;45.302;-122.946;2024-01-16T06:46:29;0;0;
55459;PMS5003;41326;45.302;-122.946;2024-01-16T06:48:59;0;0;
55459;PMS5003;41326;45.302;-122.946;2024-01-16T06:51:30;0;0;
55459;PMS5003;41326;45.302;-122.946;2024-01-16T06:54:00;0;0;
55459;PMS5003;41326;45.302;-122.946;2024-01-16T06:56:31;0;0;
55459;PMS5003;41326;45.302;-122.946;2024-01-16T06:59:00;0;0;
55459;PMS5003;41326;45.302;-122.946;2024-01-16T07:01:31;0;0;
55459;PMS5003;41326;45.302;-122.946;2024-01-16T07:04:01;0;0;
55459;PMS5003;41326;45.302;-122.946;2024-01-16T07:06:31;0;0;
55459;PMS5003;41326;45.302;-122.946;2024-01-16T07:09:02;0;0;
55459;PMS5003;41326;45.302;-122.946;2024-01-16T07:11:32;0;0;
55459;PMS5003;41326;45.302;-122.946;2024-01-16T07:14:02;0;0;
55459;PMS5003;41326;45.302;-122.946;2024-01-16T07:16:32;0;0;
55459;PMS5003;41326;45.302;-122.946;2024-01-16T07:19:02;1;0;
55459;PMS5003;41326;45.302;-122.946;2024-01-16T07:21:32;0;0;
55459;PMS5003;41326;45.302;-122.946;2024-01-16T07:24:02;0;0;
55459;PMS5003;41326;45.302;-122.946;2024-01-16T07:26:32;0;0;
55459;PMS5003;41326;45.302;-122.946;2024-01-16T07:29:02;0;0;
55459;PMS5003;41326;45.302;-122.946;2024-01-16T07:31:33;0;0;
55459;PMS5003;41326;45.302;-122.946;2024-01-16T07:34:03;0;0;
55459;PMS5003;41326;45.302;-122.946;2024-01-16T07:36:34;0;0;
55459;PMS5003;41326;45.302;-122.946;2024-01-16T07:39:04;0;0;
55459;PMS5003;41326;45.302;-122.946;2024-01-16T07:41:34;0;0;
55459;PMS5003;41326;45.302;-122.946;2024-01-16T07:44:04;0;0;
55459;PMS5003;41326;45.302;-122.946;2024-01-16T07:46:34;0;0;
55459;PMS5003;41326;45.302;-122.946;2024-01-16T07:49:04;0;0;
55459;PMS5003;41326;45.302;-122.946;2024-01-16T07:51:35;0;0;
55459;PMS5003;41326;45.302;-122.946;2024-01-16T07:54:05;0;0;
55459;PMS5003;41326;45.302;-122.946;2024-01-16T07:56:35;0;0;
55459;PMS5003;41326;45.302;-122.946;2024-01-16T07:59:05;0;0;
55459;PMS5003;41326;45.302;-122.946;2024-01-16T08:01:35;0;0;
55459;PMS5003;41326;45.302;-122.946;2024-01-16T08:04:06;0;0;
55459;PMS5003;41326;45.302;-122.946;2024-01-16T08:06:36;0;0;
55459;PMS5003;41326;45.302;-122.946;2024-01-16T08:09:06;0;0;
55459;PMS5003;41326;45.302;-122.946;2024-01-16T08:11:36;0;0;
55459;PMS5003;41326;45.302;-122.946;2024-01-16T08:14:06;0;0;
55459;PMS5003;41326;45.302;-122.946;2024-01-16T08:16:36;0;0;
55459;PMS5003;41326;45.302;-122.946;2024-01-16T08:19:06;0;0;
55459;PMS5003;41326;45.302;-122.946;2024-01-16T08:21:36;0;0;
55459;PMS5003;41326;45.302;-122.946;2024-01-16T08:24:06;0;0;
55459;PMS5003;41326;45.302;-122.946;2024-01-16T08:26:36;0;0;
55459;PMS5003;41326;45.302;-122.946;2024-01-16T08:29:07;0;0;
55459;PMS5003;41326;45.302;-122.946;2024-01-16T08:31:37;0;0;
55459;PMS5003;41326;45.302;-122.946;2024-01-16T08:34:07;0;0;
55459;PMS5003;41326;45.302;-122.946;2024-01-16T08:36:37;0;0;
55459;PMS5003;41326;45.302;-122.946;2024-01-16T08:39:07;0;0;
55459;PMS5003;41326;45.302;-122.946;2024-01-16T08:41:37;0;0;
55459;PMS5003;41326;45.302;-122.946;2024-01-16T08:44:08;0;0;
55459;PMS5003;41326;45.302;-122.946;2024-01-16T08:46:38;0;0;
55459;PMS5003;41326;45.302;-122.946;2024-01-16T08:49:08;0;0;
55459;PMS5003;41326;45.302;-122.946;2024-01-16T08:51:39;0;0;
55459;PMS5003;41326;45.302;-122.946;2024-01-16T08:54:09;0;0;
55459;PMS5003;41326;45.302;-122.946;2024-01-16T08:56:39;0;0;
55459;PMS5003;41326;45.302;-122.946;2024-01-16T08:59:09;0;0;
55459;PMS5003;41326;45.302;-122.946;2024-01-16T09:01:39;0;0;
55459;PMS5003;41326;45.302;-122.946;2024-01-16T09:04:10;0;0;
55459;PMS5003;41326;45.302;-122.946;2024-01-16T09:06:40;0;0;
55459;PMS5003;41326;45.302;-122.946;2024-01-16T09:09:10;0;0;
55459;PMS5003;41326;45.302;-122.946;2024-01-16T09:11:40;0;0;
55459;PMS5003;41326;45.302;-122.946;2024-01-16T09:14:10;0;0;
55459;PMS5003;41326;45.302;-122.946;2024-01-16T09:16:40;0;0;
55459;PMS5003;41326;45.302;-122.946;2024-01-16T09:19:10;0;0;
55459;PMS5003;41326;45.302;-122.946;2024-01-16T09:21:41;0;0;
55459;PMS5003;41326;45.302;-122.946;2024-01-16T09:24:11;0;0;
55459;PMS5003;41326;45.302;-122.946;2024-01-16T09:26:41;0;0;
55459;PMS5003;41326;45.302;-122.946;2024-01-16T09:29:11;0;0;
55459;PMS5003;41326;45.302;-122.946;2024-01-16T09:31:41;0;0;
55459;PMS5003;41326;45.302;-122.946;2024-01-16T09:34:11;0;0;
55459;PMS5003;41326;45.302;-122.946;2024-01-16T09:36:41;0;0;
55459;PMS5003;41326;45.302;-122.946;2024-01-16T09:39:11;0;0;
55459;PMS5003;41326;45.302;-122.946;2024-01-16T09:41:41;0;0;
55459;PMS5003;41326;45.302;-122.946;2024-01-16T09:44:11;0;0;
55459;PMS5003;41326;45.302;-122.946;2024-01-16T09:46:42;0;0;
55459;PMS5003;41326;45.302;-122.946;2024-01-16T09:49:11;0;0;
55459;PMS5003;41326;45.302;-122.946;2024-01-16T09:51:42;0;0;
55459;PMS5003;41326;45.302;-122.946;2024-01-16T09:54:12;0;0;
55459;PMS5003;41326;45.302;-122.946;2024-01-16T09:56:42;0;0;
55459;PMS5003;41326;45.302;-122.946;2024-01-16T09:59:14;0;0;
55459;PMS5003;41326;45.302;-122.946;2024-01-16T10:01:42;0;0;
55459;PMS5003;41326;45.302;-122.946;2024-01-16T10:04:12;0;0;
55459;PMS5003;41326;45.302;-122.946;2024-01-16T10:06:42;0;0;
55459;PMS5003;41326;45.302;-122.946;2024-01-16T10:09:12;0;0;
55459;PMS5003;41326;45.302;-122.946;2024-01-16T10:11:42;0;0;
55459;PMS5003;41326;45.302;-122.946;2024-01-16T10:14:12;0;0;
55459;PMS5003;41326;45.302;-122.946;2024-01-16T10:19:13;0;0;
55459;PMS5003;41326;45.302;-122.946;2024-01-16T10:21:43;0;0;
55459;PMS5003;41326;45.302;-122.946;2024-01-16T10:24:13;0;0;
55459;PMS5003;41326;45.302;-122.946;2024-01-16T10:26:43;0;0;
55459;PMS5003;41326;45.302;-122.946;2024-01-16T10:29:13;0;0;
55459;PMS5003;41326;45.302;-122.946;2024-01-16T10:31:43;0;0;
55459;PMS5003;41326;45.302;-122.946;2024-01-16T10:36:43;1;0;
55459;PMS5003;41326;45.302;-122.946;2024-01-16T10:39:14;0;0;
55459;PMS5003;41326;45.302;-122.946;2024-01-16T10:44:14;0;0;
55459;PMS5003;41326;45.302;-122.946;2024-01-16T10:46:44;0;0;
55459;PMS5003;41326;45.302;-122.946;2024-01-16T10:49:14;0;0;
55459;PMS5003;41326;45.302;-122.946;2024-01-16T10:51:46;0;0;
55459;PMS5003;41326;45.302;-122.946;2024-01-16T10:54:14;0;0;
55459;PMS5003;41326;45.302;-122.946;2024-01-16T10:56:45;0;0;
55459;PMS5003;41326;45.302;-122.946;2024-01-16T10:59:18;0;0;
55459;PMS5003;41326;45.302;-122.946;2024-01-16T11:01:47;0;0;
55459;PMS5003;41326;45.302;-122.946;2024-01-16T11:04:15;0;0;
55459;PMS5003;41326;45.302;-122.946;2024-01-16T11:06:46;0;0;
55459;PMS5003;41326;45.302;-122.946;2024-01-16T11:09:16;0;0;
55459;PMS5003;41326;45.302;-122.946;2024-01-16T11:14:16;0;0;
55459;PMS5003;41326;45.302;-122.946;2024-01-16T11:16:46;0;0;
55459;PMS5003;41326;45.302;-122.946;2024-01-16T11:19:16;0;0;
55459;PMS5003;41326;45.302;-122.946;2024-01-16T11:21:46;0;0;
55459;PMS5003;41326;45.302;-122.946;2024-01-16T11:24:16;0;0;
55459;PMS5003;41326;45.302;-122.946;2024-01-16T11:26:47;0;0;
55459;PMS5003;41326;45.302;-122.946;2024-01-16T11:31:47;0;0;
55459;PMS5003;41326;45.302;-122.946;2024-01-16T11:34:17;0;0;
55459;PMS5003;41326;45.302;-122.946;2024-01-16T11:36:51;0;0;
55459;PMS5003;41326;45.302;-122.946;2024-01-16T11:39:18;0;0;
55459;PMS5003;41326;45.302;-122.946;2024-01-16T11:41:49;0;0;
55459;PMS5003;41326;45.302;-122.946;2024-01-16T11:49:18;0;0;
55459;PMS5003;41326;45.302;-122.946;2024-01-16T11:51:49;0;0;
55459;PMS5003;41326;45.302;-122.946;2024-01-16T11:54:19;0;0;
55459;PMS5003;41326;45.302;-122.946;2024-01-16T12:01:50;0;0;
55459;PMS5003;41326;45.302;-122.946;2024-01-16T12:04:19;0;0;
55459;PMS5003;41326;45.302;-122.946;2024-01-16T12:09:19;0;0;
55459;PMS5003;41326;45.302;-122.946;2024-01-16T12:14:19;0;0;
55459;PMS5003;41326;45.302;-122.946;2024-01-16T12:16:49;0;0;
55459;PMS5003;41326;45.302;-122.946;2024-01-16T12:19:19;0;0;
55459;PMS5003;41326;45.302;-122.946;2024-01-16T12:21:50;0;0;
55459;PMS5003;41326;45.302;-122.946;2024-01-16T12:24:20;0;0;
55459;PMS5003;41326;45.302;-122.946;2024-01-16T12:26:50;0;0;
55459;PMS5003;41326;45.302;-122.946;2024-01-16T12:29:20;0;0;
55459;PMS5003;41326;45.302;-122.946;2024-01-16T12:31:50;0;0;
55459;PMS5003;41326;45.302;-122.946;2024-01-16T12:34:22;0;0;
55459;PMS5003;41326;45.302;-122.946;2024-01-16T12:36:50;0;0;
55459;PMS5003;41326;45.302;-122.946;2024-01-16T12:39:20;0;0;
55459;PMS5003;41326;45.302;-122.946;2024-01-16T12:41:50;0;0;
55459;PMS5003;41326;45.302;-122.946;2024-01-16T12:46:54;0;0;
55459;PMS5003;41326;45.302;-122.946;2024-01-16T12:49:21;0;0;
55459;PMS5003;41326;45.302;-122.946;2024-01-16T12:51:51;0;0;
55459;PMS5003;41326;45.302;-122.946;2024-01-16T12:54:21;0;0;
55459;PMS5003;41326;45.302;-122.946;2024-01-16T12:59:21;1;0;
55459;PMS5003;41326;45.302;-122.946;2024-01-16T13:01:51;0;0;
55459;PMS5003;41326;45.302;-122.946;2024-01-16T13:04:21;0;0;
55459;PMS5003;41326;45.302;-122.946;2024-01-16T13:06:52;0;0;
55459;PMS5003;41326;45.302;-122.946;2024-01-16T13:09:22;0;0;
55459;PMS5003;41326;45.302;-122.946;2024-01-16T13:11:52;0;0;
55459;PMS5003;41326;45.302;-122.946;2024-01-16T13:14:22;0;0;
55459;PMS5003;41326;45.302;-122.946;2024-01-16T13:16:52;0;0;
55459;PMS5003;41326;45.302;-122.946;2024-01-16T13:19:22;0;0;
55459;PMS5003;41326;45.302;-122.946;2024-01-16T13:21:52;0;0;
55459;PMS5003;41326;45.302;-122.946;2024-01-16T13:24:22;0;0;
55459;PMS5003;41326;45.302;-122.946;2024-01-16T13:26:52;0;0;
55459;PMS5003;41326;45.302;-122.946;2024-01-16T13:29:22;0;0;
55459;PMS5003;41326;45.302;-122.946;2024-01-16T13:31:52;0;0;
55459;PMS5003;41326;45.302;-122.946;2024-01-16T13:34:22;0;0;
55459;PMS5003;41326;45.302;-122.946;2024-01-16T13:36:53;0;0;
55459;PMS5003;41326;45.302;-122.946;2024-01-16T13:39:23;0;0;
55459;PMS5003;41326;45.302;-122.946;2024-01-16T13:41:53;0;0;
55459;PMS5003;41326;45.302;-122.946;2024-01-16T13:44:23;0;0;
55459;PMS5003;41326;45.302;-122.946;2024-01-16T13:46:53;0;0;
55459;PMS5003;41326;45.302;-122.946;2024-01-16T13:49:23;0;0;
55459;PMS5003;41326;45.302;-122.946;2024-01-16T13:51:54;0;0;
55459;PMS5003;41326;45.302;-122.946;2024-01-16T13:54:23;0;0;
55459;PMS5003;41326;45.302;-122.946;2024-01-16T13:56:53;0;0;
55459;PMS5003;41326;45.302;-122.946;2024-01-16T13:59:24;0;0;
55459;PMS5003;41326;45.302;-122.946;2024-01-16T14:01:54;0;0;
55459;PMS5003;41326;45.302;-122.946;2024-01-16T14:04:24;0;0;
55459;PMS5003;41326;45.302;-122.946;2024-01-16T14:06:54;0;0;
55459;PMS5003;41326;45.302;-122.946;2024-01-16T14:09:24;0;0;
55459;PMS5003;41326;45.302;-122.946;2024-01-16T14:11:54;0;0;
55459;PMS5003;41326;45.302;-122.946;2024-01-16T14:14:24;0;0;
55459;PMS5003;41326;45.302;-122.946;2024-01-16T14:16:54;0;0;
55459;PMS5003;41326;45.302;-122.946;2024-01-16T14:19:24;0;0;
55459;PMS5003;41326;45.302;-122.946;2024-01-16T14:21:54;0;0;
55459;PMS5003;41326;45.302;-122.946;2024-01-16T14:24:24;0;0;
55459;PMS5003;41326;45.302;-122.946;2024-01-16T14:26:55;0;0;
55459;PMS5003;41326;45.302;-122.946;2024-01-16T14:29:25;0;0;
55459;PMS5003;41326;45.302;-122.946;2024-01-16T14:31:55;0;0;
55459;PMS5003;41326;45.302;-122.946;2024-01-16T14:34:25;0;0;
55459;PMS5003;41326;45.302;-122.946;2024-01-16T14:36:55;0;0;
55459;PMS5003;41326;45.302;-122.946;2024-01-16T14:39:25;0;0;
55459;PMS5003;41326;45.302;-122.946;2024-01-16T14:41:55;0;0;
55459;PMS5003;41326;45.302;-122.946;2024-01-16T14:44:25;0;0;
55459;PMS5003;41326;45.302;-122.946;2024-01-16T14:46:55;0;0;
55459;PMS5003;41326;45.302;-122.946;2024-01-16T14:49:25;0;0;
55459;PMS5003;41326;45.302;-122.946;2024-01-16T14:51:56;0;0;
55459;PMS5003;41326;45.302;-122.946;2024-01-16T14:54:26;0;0;
55459;PMS5003;41326;45.302;-122.946;2024-01-16T14:56:56;0;0;
55459;PMS5003;41326;45.302;-122.946;2024-01-16T14:59:26;0;0;
55459;PMS5003;41326;45.302;-122.946;2024-01-16T15:01:56;0;0;
55459;PMS5003;41326;45.302;-122.946;2024-01-16T15:04:26;0;0;
55459;PMS5003;41326;45.302;-122.946;2024-01-16T15:06:56;0;0;
55459;PMS5003;41326;45.302;-122.946;2024-01-16T15:09:26;0;0;
55459;PMS5003;41326;45.302;-122.946;2024-01-16T15:11:56;0;0;
55459;PMS5003;41326;45.302;-122.946;2024-01-16T15:14:26;0;0;
55459;PMS5003;41326;45.302;-122.946;2024-01-16T15:16:56;0;0;
55459;PMS5003;41326;45.302;-122.946;2024-01-16T15:19:27;0;0;
55459;PMS5003;41326;45.302;-122.946;2024-01-16T15:21:57;0;0;
55459;PMS5003;41326;45.302;-122.946;2024-01-16T15:24:27;0;0;
55459;PMS5003;41326;45.302;-122.946;2024-01-16T15:26:57;0;0;
55459;PMS5003;41326;45.302;-122.946;2024-01-16T15:29:27;0;0;
55459;PMS5003;41326;45.302;-122.946;2024-01-16T15:31:57;0;0;
55459;PMS5003;41326;45.302;-122.946;2024-01-16T15:34:27;0;0;
55459;PMS5003;41326;45.302;-122.946;2024-01-16T15:36:58;0;0;
55459;PMS5003;41326;45.302;-122.946;2024-01-16T15:39:27;0;0;
55459;PMS5003;41326;45.302;-122.946;2024-01-16T15:41:57;0;0;
55459;PMS5003;41326;45.302;-122.946;2024-01-16T15:44:27;0;0;
55459;PMS5003;41326;45.302;-122.946;2024-01-16T15:46:58;1;0;
55459;PMS5003;41326;45.302;-122.946;2024-01-16T15:49:29;0;0;
55459;PMS5003;41326;45.302;-122.946;2024-01-16T15:51:59;0;0;
55459;PMS5003;41326;45.302;-122.946;2024-01-16T15:54:29;0;0;
55459;PMS5003;41326;45.302;-122.946;2024-01-16T15:56:59;0;0;
55459;PMS5003;41326;45.302;-122.946;2024-01-16T15:59:29;0;0;
55459;PMS5003;41326;45.302;-122.946;2024-01-16T16:01:59;0;0;
55459;PMS5003;41326;45.302;-122.946;2024-01-16T16:04:29;1;0;
55459;PMS5003;41326;45.302;-122.946;2024-01-16T16:06:59;0;0;
55459;PMS5003;41326;45.302;-122.946;2024-01-16T16:09:29;0;0;
55459;PMS5003;41326;45.302;-122.946;2024-01-16T16:11:59;0;0;
55459;PMS5003;41326;45.302;-122.946;2024-01-16T16:14:29;0;0;
55459;PMS5003;41326;45.302;-122.946;2024-01-16T16:17:00;0;0;
55459;PMS5003;41326;45.302;-122.946;2024-01-16T16:19:30;0;0;
55459;PMS5003;41326;45.302;-122.946;2024-01-16T16:22:00;0;0;
55459;PMS5003;41326;45.302;-122.946;2024-01-16T16:24:30;0;0;
55459;PMS5003;41326;45.302;-122.946;2024-01-16T16:27:00;0;0;
55459;PMS5003;41326;45.302;-122.946;2024-01-16T16:29:30;1;0;
55459;PMS5003;41326;45.302;-122.946;2024-01-16T16:32:00;0;0;
55459;PMS5003;41326;45.302;-122.946;2024-01-16T16:34:30;0;0;
55459;PMS5003;41326;45.302;-122.946;2024-01-16T16:37:00;0;0;
55459;PMS5003;41326;45.302;-122.946;2024-01-16T16:39:30;0;0;
55459;PMS5003;41326;45.302;-122.946;2024-01-16T16:42:01;0;0;
55459;PMS5003;41326;45.302;-122.946;2024-01-16T16:44:31;0;0;
55459;PMS5003;41326;45.302;-122.946;2024-01-16T16:47:01;0;0;
55459;PMS5003;41326;45.302;-122.946;2024-01-16T16:49:31;0;0;
55459;PMS5003;41326;45.302;-122.946;2024-01-16T16:52:02;0;0;
55459;PMS5003;41326;45.302;-122.946;2024-01-16T16:54:31;0;0;